sensor_id;sensor_type;location;lat;lon;timestamp;P1;durP1;ratioP1;P2;durP2;ratioP2
80637;SDS011;69991;51.760;19.528;2023-08-17T00:02:00;10.30;;;7.70;;
80637;SDS011;69991;51.760;19.528;2023-08-17T00:04:49;10.30;;;9.30;;
80637;SDS011;69991;51.760;19.528;2023-08-17T00:07:24;10.00;;;8.00;;
80637;SDS011;69991;51.760;19.528;2023-08-17T00:10:13;10.20;;;8.10;;
80637;SDS011;69991;51.760;19.528;2023-08-17T00:12:55;9.50;;;7.50;;
80637;SDS011;69991;51.760;19.528;2023-08-17T00:15:39;8.50;;;7.30;;
80637;SDS011;69991;51.760;19.528;2023-08-17T00:18:21;9.90;;;7.40;;
80637;SDS011;69991;51.760;19.528;2023-08-17T00:21:03;8.90;;;7.60;;
80637;SDS011;69991;51.760;19.528;2023-08-17T00:23:45;10.10;;;8.20;;
80637;SDS011;69991;51.760;19.528;2023-08-17T00:26:27;8.40;;;7.50;;
80637;SDS011;69991;51.760;19.528;2023-08-17T00:29:10;8.50;;;7.40;;
80637;SDS011;69991;51.760;19.528;2023-08-17T00:31:59;9.70;;;7.40;;
80637;SDS011;69991;51.760;19.528;2023-08-17T00:34:34;8.50;;;7.30;;
80637;SDS011;69991;51.760;19.528;2023-08-17T00:37:22;8.00;;;6.80;;
80637;SDS011;69991;51.760;19.528;2023-08-17T00:39:58;8.00;;;6.70;;
80637;SDS011;69991;51.760;19.528;2023-08-17T00:42:48;11.90;;;7.50;;
80637;SDS011;69991;51.760;19.528;2023-08-17T00:45:24;7.30;;;6.30;;
80637;SDS011;69991;51.760;19.528;2023-08-17T00:48:13;8.20;;;7.30;;
80637;SDS011;69991;51.760;19.528;2023-08-17T00:50:49;13.30;;;10.30;;
80637;SDS011;69991;51.760;19.528;2023-08-17T00:53:39;12.60;;;11.10;;
80637;SDS011;69991;51.760;19.528;2023-08-17T00:56:14;11.40;;;9.50;;
80637;SDS011;69991;51.760;19.528;2023-08-17T00:59:04;11.60;;;9.00;;
80637;SDS011;69991;51.760;19.528;2023-08-17T01:01:39;11.80;;;9.20;;
80637;SDS011;69991;51.760;19.528;2023-08-17T01:04:21;12.70;;;9.60;;
80637;SDS011;69991;51.760;19.528;2023-08-17T01:07:10;9.20;;;7.80;;
80637;SDS011;69991;51.760;19.528;2023-08-17T01:09:45;9.00;;;7.90;;
80637;SDS011;69991;51.760;19.528;2023-08-17T01:15:25;9.60;;;7.90;;
80637;SDS011;69991;51.760;19.528;2023-08-17T01:18:18;11.00;;;8.90;;
80637;SDS011;69991;51.760;19.528;2023-08-17T01:20:59;10.40;;;8.30;;
80637;SDS011;69991;51.760;19.528;2023-08-17T01:23:49;10.30;;;7.80;;
80637;SDS011;69991;51.760;19.528;2023-08-17T01:26:25;18.20;;;15.90;;
80637;SDS011;69991;51.760;19.528;2023-08-17T01:29:14;11.60;;;9.70;;
80637;SDS011;69991;51.760;19.528;2023-08-17T01:35:09;9.70;;;8.60;;
80637;SDS011;69991;51.760;19.528;2023-08-17T01:38:12;8.60;;;7.80;;
80637;SDS011;69991;51.760;19.528;2023-08-17T01:41:10;9.60;;;7.90;;
80637;SDS011;69991;51.760;19.528;2023-08-17T01:44:06;9.50;;;7.80;;
80637;SDS011;69991;51.760;19.528;2023-08-17T01:47:02;10.00;;;8.40;;
80637;SDS011;69991;51.760;19.528;2023-08-17T01:49:58;8.70;;;7.80;;
80637;SDS011;69991;51.760;19.528;2023-08-17T01:52:55;10.30;;;7.70;;
80637;SDS011;69991;51.760;19.528;2023-08-17T01:55:51;9.50;;;7.60;;
80637;SDS011;69991;51.760;19.528;2023-08-17T01:58:28;8.50;;;7.60;;
80637;SDS011;69991;51.760;19.528;2023-08-17T02:01:17;12.30;;;8.40;;
80637;SDS011;69991;51.760;19.528;2023-08-17T02:03:59;9.90;;;7.70;;
80637;SDS011;69991;51.760;19.528;2023-08-17T02:06:41;9.10;;;8.20;;
80637;SDS011;69991;51.760;19.528;2023-08-17T02:09:23;11.40;;;7.60;;
80637;SDS011;69991;51.760;19.528;2023-08-17T02:12:05;10.20;;;8.10;;
80637;SDS011;69991;51.760;19.528;2023-08-17T02:14:47;10.90;;;9.10;;
80637;SDS011;69991;51.760;19.528;2023-08-17T02:17:29;9.10;;;8.20;;
80637;SDS011;69991;51.760;19.528;2023-08-17T02:20:11;9.30;;;8.30;;
80637;SDS011;69991;51.760;19.528;2023-08-17T02:22:52;11.70;;;10.10;;
80637;SDS011;69991;51.760;19.528;2023-08-17T02:28:42;9.90;;;8.90;;
80637;SDS011;69991;51.760;19.528;2023-08-17T02:31:38;9.30;;;8.30;;
80637;SDS011;69991;51.760;19.528;2023-08-17T02:34:13;10.10;;;8.80;;
80637;SDS011;69991;51.760;19.528;2023-08-17T02:37:02;8.60;;;7.80;;
80637;SDS011;69991;51.760;19.528;2023-08-17T02:39:37;9.10;;;7.90;;
80637;SDS011;69991;51.760;19.528;2023-08-17T02:42:27;8.70;;;7.50;;
80637;SDS011;69991;51.760;19.528;2023-08-17T02:45:02;11.20;;;8.10;;
80637;SDS011;69991;51.760;19.528;2023-08-17T02:47:52;8.80;;;7.90;;
80637;SDS011;69991;51.760;19.528;2023-08-17T02:50:27;9.10;;;7.50;;
80637;SDS011;69991;51.760;19.528;2023-08-17T02:53:16;9.10;;;7.30;;
80637;SDS011;69991;51.760;19.528;2023-08-17T02:55:51;8.30;;;6.90;;
80637;SDS011;69991;51.760;19.528;2023-08-17T02:58:26;8.90;;;7.10;;
80637;SDS011;69991;51.760;19.528;2023-08-17T03:01:08;9.00;;;8.00;;
80637;SDS011;69991;51.760;19.528;2023-08-17T03:03:50;10.10;;;7.50;;
80637;SDS011;69991;51.760;19.528;2023-08-17T03:06:32;8.30;;;7.10;;
80637;SDS011;69991;51.760;19.528;2023-08-17T03:09:14;9.70;;;8.40;;
80637;SDS011;69991;51.760;19.528;2023-08-17T03:11:56;8.90;;;8.00;;
80637;SDS011;69991;51.760;19.528;2023-08-17T03:14:38;9.30;;;7.30;;
80637;SDS011;69991;51.760;19.528;2023-08-17T03:17:20;8.70;;;7.50;;
80637;SDS011;69991;51.760;19.528;2023-08-17T03:20:02;10.10;;;8.10;;
80637;SDS011;69991;51.760;19.528;2023-08-17T03:22:45;8.50;;;7.50;;
80637;SDS011;69991;51.760;19.528;2023-08-17T03:25:27;9.60;;;7.10;;
80637;SDS011;69991;51.760;19.528;2023-08-17T03:28:16;10.50;;;7.50;;
80637;SDS011;69991;51.760;19.528;2023-08-17T03:30:55;9.70;;;6.50;;
80637;SDS011;69991;51.760;19.528;2023-08-17T03:33:45;9.20;;;7.30;;
80637;SDS011;69991;51.760;19.528;2023-08-17T03:36:20;7.80;;;7.00;;
80637;SDS011;69991;51.760;19.528;2023-08-17T03:39:09;10.50;;;8.70;;
80637;SDS011;69991;51.760;19.528;2023-08-17T03:41:45;10.00;;;7.00;;
80637;SDS011;69991;51.760;19.528;2023-08-17T03:44:34;10.00;;;7.70;;
80637;SDS011;69991;51.760;19.528;2023-08-17T03:47:09;10.40;;;7.80;;
80637;SDS011;69991;51.760;19.528;2023-08-17T03:49:58;10.50;;;8.80;;
80637;SDS011;69991;51.760;19.528;2023-08-17T03:52:33;10.10;;;7.30;;
80637;SDS011;69991;51.760;19.528;2023-08-17T03:55:22;9.30;;;7.90;;
80637;SDS011;69991;51.760;19.528;2023-08-17T03:57:57;10.10;;;7.70;;
80637;SDS011;69991;51.760;19.528;2023-08-17T04:00:49;10.50;;;7.30;;
80637;SDS011;69991;51.760;19.528;2023-08-17T04:03:25;9.40;;;8.20;;
80637;SDS011;69991;51.760;19.528;2023-08-17T04:06:21;12.00;;;7.80;;
80637;SDS011;69991;51.760;19.528;2023-08-17T04:09:18;9.90;;;7.50;;
80637;SDS011;69991;51.760;19.528;2023-08-17T04:12:14;9.80;;;7.30;;
80637;SDS011;69991;51.760;19.528;2023-08-17T04:15:10;8.60;;;7.70;;
80637;SDS011;69991;51.760;19.528;2023-08-17T04:18:06;9.00;;;7.60;;
80637;SDS011;69991;51.760;19.528;2023-08-17T04:20:41;11.90;;;8.40;;
80637;SDS011;69991;51.760;19.528;2023-08-17T04:23:30;10.60;;;8.00;;
80637;SDS011;69991;51.760;19.528;2023-08-17T04:26:05;9.20;;;8.30;;
80637;SDS011;69991;51.760;19.528;2023-08-17T04:28:54;10.50;;;8.90;;
80637;SDS011;69991;51.760;19.528;2023-08-17T04:31:29;10.30;;;9.10;;
80637;SDS011;69991;51.760;19.528;2023-08-17T04:34:18;9.70;;;7.80;;
80637;SDS011;69991;51.760;19.528;2023-08-17T04:37:00;9.20;;;7.80;;
80637;SDS011;69991;51.760;19.528;2023-08-17T04:39:42;9.60;;;8.40;;
80637;SDS011;69991;51.760;19.528;2023-08-17T04:42:25;10.70;;;8.40;;
80637;SDS011;69991;51.760;19.528;2023-08-17T04:45:07;10.50;;;7.70;;
80637;SDS011;69991;51.760;19.528;2023-08-17T04:47:49;9.60;;;7.60;;
80637;SDS011;69991;51.760;19.528;2023-08-17T04:50:38;9.30;;;7.70;;
80637;SDS011;69991;51.760;19.528;2023-08-17T04:53:13;10.00;;;7.50;;
80637;SDS011;69991;51.760;19.528;2023-08-17T04:56:02;8.90;;;7.70;;
80637;SDS011;69991;51.760;19.528;2023-08-17T04:58:38;9.50;;;8.50;;
80637;SDS011;69991;51.760;19.528;2023-08-17T05:01:27;11.00;;;8.30;;
80637;SDS011;69991;51.760;19.528;2023-08-17T05:04:03;9.40;;;8.50;;
80637;SDS011;69991;51.760;19.528;2023-08-17T05:06:59;10.70;;;6.90;;
80637;SDS011;69991;51.760;19.528;2023-08-17T05:09:55;10.20;;;8.00;;
80637;SDS011;69991;51.760;19.528;2023-08-17T05:12:51;10.40;;;7.80;;
80637;SDS011;69991;51.760;19.528;2023-08-17T05:15:47;10.90;;;8.10;;
80637;SDS011;69991;51.760;19.528;2023-08-17T05:18:43;11.40;;;7.90;;
80637;SDS011;69991;51.760;19.528;2023-08-17T05:21:39;9.40;;;7.40;;
80637;SDS011;69991;51.760;19.528;2023-08-17T05:24:34;11.30;;;7.80;;
80637;SDS011;69991;51.760;19.528;2023-08-17T05:27:31;9.20;;;7.90;;
80637;SDS011;69991;51.760;19.528;2023-08-17T05:30:27;8.00;;;6.80;;
80637;SDS011;69991;51.760;19.528;2023-08-17T05:33:23;10.10;;;7.60;;
80637;SDS011;69991;51.760;19.528;2023-08-17T05:35:58;9.30;;;8.30;;
80637;SDS011;69991;51.760;19.528;2023-08-17T05:38:47;10.10;;;6.40;;
80637;SDS011;69991;51.760;19.528;2023-08-17T05:41:22;11.00;;;8.70;;
80637;SDS011;69991;51.760;19.528;2023-08-17T05:44:11;11.70;;;8.80;;
80637;SDS011;69991;51.760;19.528;2023-08-17T05:46:46;9.50;;;8.60;;
80637;SDS011;69991;51.760;19.528;2023-08-17T05:49:35;13.00;;;8.60;;
80637;SDS011;69991;51.760;19.528;2023-08-17T05:52:10;9.00;;;7.30;;
80637;SDS011;69991;51.760;19.528;2023-08-17T05:54:59;10.10;;;8.90;;
80637;SDS011;69991;51.760;19.528;2023-08-17T05:57:34;12.10;;;9.20;;
80637;SDS011;69991;51.760;19.528;2023-08-17T06:00:23;20.20;;;10.00;;
80637;SDS011;69991;51.760;19.528;2023-08-17T06:02:58;9.90;;;8.70;;
80637;SDS011;69991;51.760;19.528;2023-08-17T06:05:40;11.50;;;8.80;;
80637;SDS011;69991;51.760;19.528;2023-08-17T06:08:22;11.90;;;10.70;;
80637;SDS011;69991;51.760;19.528;2023-08-17T06:11:04;11.30;;;9.20;;
80637;SDS011;69991;51.760;19.528;2023-08-17T06:13:46;12.30;;;9.70;;
80637;SDS011;69991;51.760;19.528;2023-08-17T06:16:28;10.40;;;9.10;;
80637;SDS011;69991;51.760;19.528;2023-08-17T06:19:10;10.50;;;8.80;;
80637;SDS011;69991;51.760;19.528;2023-08-17T06:21:52;10.90;;;9.50;;
80637;SDS011;69991;51.760;19.528;2023-08-17T06:24:34;11.00;;;9.20;;
80637;SDS011;69991;51.760;19.528;2023-08-17T06:27:11;11.90;;;10.00;;
80637;SDS011;69991;51.760;19.528;2023-08-17T06:30:03;11.70;;;10.30;;
80637;SDS011;69991;51.760;19.528;2023-08-17T06:32:39;12.60;;;10.00;;
80637;SDS011;69991;51.760;19.528;2023-08-17T06:35:29;12.80;;;9.30;;
80637;SDS011;69991;51.760;19.528;2023-08-17T06:38:04;12.30;;;9.90;;
80637;SDS011;69991;51.760;19.528;2023-08-17T06:40:54;10.90;;;9.70;;
80637;SDS011;69991;51.760;19.528;2023-08-17T06:43:29;10.90;;;9.20;;
80637;SDS011;69991;51.760;19.528;2023-08-17T06:46:18;11.50;;;10.30;;
80637;SDS011;69991;51.760;19.528;2023-08-17T06:48:53;14.30;;;10.30;;
80637;SDS011;69991;51.760;19.528;2023-08-17T06:51:43;12.80;;;9.60;;
80637;SDS011;69991;51.760;19.528;2023-08-17T06:54:18;12.50;;;9.30;;
80637;SDS011;69991;51.760;19.528;2023-08-17T06:57:07;11.50;;;9.40;;
80637;SDS011;69991;51.760;19.528;2023-08-17T06:59:42;12.30;;;10.50;;
80637;SDS011;69991;51.760;19.528;2023-08-17T07:02:31;9.70;;;8.80;;
80637;SDS011;69991;51.760;19.528;2023-08-17T07:05:28;12.60;;;10.00;;
80637;SDS011;69991;51.760;19.528;2023-08-17T07:08:10;11.90;;;10.50;;
80637;SDS011;69991;51.760;19.528;2023-08-17T07:10:52;10.60;;;9.00;;
80637;SDS011;69991;51.760;19.528;2023-08-17T07:13:34;18.50;;;12.20;;
80637;SDS011;69991;51.760;19.528;2023-08-17T07:16:16;12.70;;;10.80;;
80637;SDS011;69991;51.760;19.528;2023-08-17T07:18:58;15.20;;;10.50;;
80637;SDS011;69991;51.760;19.528;2023-08-17T07:21:40;14.80;;;10.60;;
80637;SDS011;69991;51.760;19.528;2023-08-17T07:24:22;11.70;;;10.10;;
80637;SDS011;69991;51.760;19.528;2023-08-17T07:27:11;12.10;;;10.10;;
80637;SDS011;69991;51.760;19.528;2023-08-17T07:30:07;14.60;;;10.80;;
80637;SDS011;69991;51.760;19.528;2023-08-17T07:33:04;12.90;;;10.70;;
80637;SDS011;69991;51.760;19.528;2023-08-17T07:36:00;11.90;;;9.90;;
80637;SDS011;69991;51.760;19.528;2023-08-17T07:38:35;12.30;;;10.40;;
80637;SDS011;69991;51.760;19.528;2023-08-17T07:41:24;11.80;;;10.50;;
80637;SDS011;69991;51.760;19.528;2023-08-17T07:43:59;12.40;;;11.00;;
80637;SDS011;69991;51.760;19.528;2023-08-17T07:46:48;13.20;;;10.80;;
80637;SDS011;69991;51.760;19.528;2023-08-17T07:49:23;15.10;;;10.40;;
80637;SDS011;69991;51.760;19.528;2023-08-17T07:52:12;14.30;;;11.70;;
80637;SDS011;69991;51.760;19.528;2023-08-17T07:54:47;12.50;;;10.60;;
80637;SDS011;69991;51.760;19.528;2023-08-17T07:57:36;13.80;;;10.90;;
80637;SDS011;69991;51.760;19.528;2023-08-17T08:00:18;12.20;;;10.40;;
80637;SDS011;69991;51.760;19.528;2023-08-17T08:03:00;13.80;;;10.90;;
80637;SDS011;69991;51.760;19.528;2023-08-17T08:05:42;14.90;;;10.00;;
80637;SDS011;69991;51.760;19.528;2023-08-17T08:08:31;15.40;;;11.60;;
80637;SDS011;69991;51.760;19.528;2023-08-17T08:11:06;12.50;;;10.60;;
80637;SDS011;69991;51.760;19.528;2023-08-17T08:13:55;12.30;;;9.70;;
80637;SDS011;69991;51.760;19.528;2023-08-17T08:16:30;14.50;;;11.80;;
80637;SDS011;69991;51.760;19.528;2023-08-17T08:19:19;14.30;;;11.00;;
80637;SDS011;69991;51.760;19.528;2023-08-17T08:21:54;13.40;;;10.40;;
80637;SDS011;69991;51.760;19.528;2023-08-17T08:24:44;13.30;;;11.10;;
80637;SDS011;69991;51.760;19.528;2023-08-17T08:27:19;15.50;;;11.40;;
80637;SDS011;69991;51.760;19.528;2023-08-17T08:30:08;11.20;;;9.10;;
80637;SDS011;69991;51.760;19.528;2023-08-17T08:32:43;14.60;;;11.70;;
80637;SDS011;69991;51.760;19.528;2023-08-17T08:35:32;12.70;;;11.40;;
80637;SDS011;69991;51.760;19.528;2023-08-17T08:38:07;15.20;;;13.40;;
80637;SDS011;69991;51.760;19.528;2023-08-17T08:40:56;13.90;;;11.70;;
80637;SDS011;69991;51.760;19.528;2023-08-17T08:43:31;13.10;;;10.70;;
80637;SDS011;69991;51.760;19.528;2023-08-17T08:46:20;13.90;;;11.50;;
80637;SDS011;69991;51.760;19.528;2023-08-17T08:48:55;13.70;;;11.60;;
80637;SDS011;69991;51.760;19.528;2023-08-17T08:51:44;14.10;;;11.50;;
80637;SDS011;69991;51.760;19.528;2023-08-17T08:54:21;15.30;;;13.70;;
80637;SDS011;69991;51.760;19.528;2023-08-17T08:57:12;17.40;;;11.70;;
80637;SDS011;69991;51.760;19.528;2023-08-17T08:59:51;14.90;;;11.90;;
80637;SDS011;69991;51.760;19.528;2023-08-17T09:02:26;13.60;;;12.20;;
80637;SDS011;69991;51.760;19.528;2023-08-17T09:05:15;14.60;;;13.00;;
80637;SDS011;69991;51.760;19.528;2023-08-17T09:07:51;13.20;;;11.70;;
80637;SDS011;69991;51.760;19.528;2023-08-17T09:10:41;15.20;;;12.80;;
80637;SDS011;69991;51.760;19.528;2023-08-17T09:13:17;13.60;;;11.70;;
80637;SDS011;69991;51.760;19.528;2023-08-17T09:16:06;14.30;;;11.90;;
80637;SDS011;69991;51.760;19.528;2023-08-17T09:18:42;15.00;;;12.40;;
80637;SDS011;69991;51.760;19.528;2023-08-17T09:21:31;13.40;;;12.00;;
80637;SDS011;69991;51.760;19.528;2023-08-17T09:24:08;15.00;;;12.80;;
80637;SDS011;69991;51.760;19.528;2023-08-17T09:27:04;13.60;;;12.20;;
80637;SDS011;69991;51.760;19.528;2023-08-17T09:30:06;13.50;;;11.90;;
80637;SDS011;69991;51.760;19.528;2023-08-17T09:33:04;13.60;;;12.00;;
80637;SDS011;69991;51.760;19.528;2023-08-17T09:35:41;14.00;;;12.40;;
80637;SDS011;69991;51.760;19.528;2023-08-17T09:38:30;16.50;;;12.30;;
80637;SDS011;69991;51.760;19.528;2023-08-17T09:41:05;15.10;;;12.60;;
80637;SDS011;69991;51.760;19.528;2023-08-17T09:43:56;16.80;;;14.30;;
80637;SDS011;69991;51.760;19.528;2023-08-17T09:46:31;13.70;;;12.30;;
80637;SDS011;69991;51.760;19.528;2023-08-17T09:49:20;14.80;;;13.20;;
80637;SDS011;69991;51.760;19.528;2023-08-17T09:51:57;16.70;;;13.60;;
80637;SDS011;69991;51.760;19.528;2023-08-17T09:54:48;15.70;;;12.70;;
80637;SDS011;69991;51.760;19.528;2023-08-17T09:57:23;20.20;;;13.10;;
80637;SDS011;69991;51.760;19.528;2023-08-17T09:59:59;13.70;;;10.90;;
80637;SDS011;69991;51.760;19.528;2023-08-17T10:02:44;14.90;;;12.60;;
80637;SDS011;69991;51.760;19.528;2023-08-17T10:05:26;15.40;;;13.30;;
80637;SDS011;69991;51.760;19.528;2023-08-17T10:08:10;15.20;;;12.00;;
80637;SDS011;69991;51.760;19.528;2023-08-17T10:10:53;15.10;;;13.50;;
80637;SDS011;69991;51.760;19.528;2023-08-17T10:13:42;20.30;;;18.10;;
80637;SDS011;69991;51.760;19.528;2023-08-17T10:19:33;14.80;;;12.40;;
80637;SDS011;69991;51.760;19.528;2023-08-17T10:25:25;17.60;;;12.90;;
80637;SDS011;69991;51.760;19.528;2023-08-17T10:28:22;14.30;;;12.80;;
80637;SDS011;69991;51.760;19.528;2023-08-17T10:31:19;11.40;;;9.90;;
80637;SDS011;69991;51.760;19.528;2023-08-17T10:34:15;13.80;;;12.20;;
80637;SDS011;69991;51.760;19.528;2023-08-17T10:36:50;14.60;;;13.10;;
80637;SDS011;69991;51.760;19.528;2023-08-17T10:39:48;14.80;;;13.30;;
80637;SDS011;69991;51.760;19.528;2023-08-17T10:42:33;14.60;;;13.20;;
80637;SDS011;69991;51.760;19.528;2023-08-17T10:45:32;15.60;;;14.00;;
80637;SDS011;69991;51.760;19.528;2023-08-17T10:51:00;15.50;;;13.80;;
80637;SDS011;69991;51.760;19.528;2023-08-17T10:53:43;15.50;;;13.80;;
80637;SDS011;69991;51.760;19.528;2023-08-17T10:56:19;17.80;;;15.10;;
80637;SDS011;69991;51.760;19.528;2023-08-17T10:58:54;14.40;;;12.90;;
80637;SDS011;69991;51.760;19.528;2023-08-17T11:01:41;17.30;;;14.40;;
80637;SDS011;69991;51.760;19.528;2023-08-17T11:04:17;14.90;;;13.40;;
80637;SDS011;69991;51.760;19.528;2023-08-17T11:07:02;14.10;;;12.80;;
80637;SDS011;69991;51.760;19.528;2023-08-17T11:09:45;15.90;;;14.30;;
80637;SDS011;69991;51.760;19.528;2023-08-17T11:12:26;14.70;;;12.40;;
80637;SDS011;69991;51.760;19.528;2023-08-17T11:15:02;14.00;;;12.60;;
80637;SDS011;69991;51.760;19.528;2023-08-17T11:17:45;14.70;;;13.10;;
80637;SDS011;69991;51.760;19.528;2023-08-17T11:20:22;15.60;;;12.40;;
80637;SDS011;69991;51.760;19.528;2023-08-17T11:22:58;13.40;;;12.00;;
80637;SDS011;69991;51.760;19.528;2023-08-17T11:25:41;14.60;;;13.10;;
80637;SDS011;69991;51.760;19.528;2023-08-17T11:28:23;14.10;;;12.60;;
80637;SDS011;69991;51.760;19.528;2023-08-17T11:31:17;15.50;;;12.70;;
80637;SDS011;69991;51.760;19.528;2023-08-17T11:34:16;15.40;;;14.00;;
80637;SDS011;69991;51.760;19.528;2023-08-17T11:37:12;15.10;;;12.90;;
80637;SDS011;69991;51.760;19.528;2023-08-17T11:40:08;14.00;;;12.50;;
80637;SDS011;69991;51.760;19.528;2023-08-17T11:43:06;13.50;;;12.10;;
80637;SDS011;69991;51.760;19.528;2023-08-17T11:46:03;13.50;;;11.80;;
80637;SDS011;69991;51.760;19.528;2023-08-17T11:48:38;13.70;;;12.30;;
80637;SDS011;69991;51.760;19.528;2023-08-17T11:51:30;14.00;;;12.50;;
80637;SDS011;69991;51.760;19.528;2023-08-17T11:54:06;18.50;;;13.30;;
80637;SDS011;69991;51.760;19.528;2023-08-17T11:56:55;13.40;;;12.10;;
80637;SDS011;69991;51.760;19.528;2023-08-17T11:59:30;15.20;;;11.70;;
80637;SDS011;69991;51.760;19.528;2023-08-17T12:02:18;12.60;;;11.30;;
80637;SDS011;69991;51.760;19.528;2023-08-17T12:04:54;12.90;;;11.60;;
80637;SDS011;69991;51.760;19.528;2023-08-17T12:07:44;14.50;;;12.30;;
80637;SDS011;69991;51.760;19.528;2023-08-17T12:10:20;13.50;;;12.10;;
80637;SDS011;69991;51.760;19.528;2023-08-17T12:13:11;16.40;;;12.60;;
80637;SDS011;69991;51.760;19.528;2023-08-17T12:15:48;13.50;;;11.90;;
80637;SDS011;69991;51.760;19.528;2023-08-17T12:18:32;13.10;;;11.80;;
80637;SDS011;69991;51.760;19.528;2023-08-17T12:21:16;13.50;;;12.10;;
80637;SDS011;69991;51.760;19.528;2023-08-17T12:23:58;16.70;;;14.20;;
80637;SDS011;69991;51.760;19.528;2023-08-17T12:26:42;17.50;;;13.20;;
80637;SDS011;69991;51.760;19.528;2023-08-17T12:29:28;15.60;;;14.20;;
80637;SDS011;69991;51.760;19.528;2023-08-17T12:32:10;15.10;;;13.50;;
80637;SDS011;69991;51.760;19.528;2023-08-17T12:34:46;15.90;;;13.40;;
80637;SDS011;69991;51.760;19.528;2023-08-17T12:37:35;16.90;;;15.20;;
80637;SDS011;69991;51.760;19.528;2023-08-17T12:40:10;17.30;;;13.60;;
80637;SDS011;69991;51.760;19.528;2023-08-17T12:43:00;16.00;;;14.30;;
80637;SDS011;69991;51.760;19.528;2023-08-17T12:45:35;15.90;;;14.10;;
80637;SDS011;69991;51.760;19.528;2023-08-17T12:48:24;14.70;;;13.20;;
80637;SDS011;69991;51.760;19.528;2023-08-17T12:51:04;13.80;;;12.20;;
80637;SDS011;69991;51.760;19.528;2023-08-17T12:53:53;16.70;;;13.80;;
80637;SDS011;69991;51.760;19.528;2023-08-17T12:56:28;15.90;;;14.10;;
80637;SDS011;69991;51.760;19.528;2023-08-17T12:59:17;15.20;;;13.40;;
80637;SDS011;69991;51.760;19.528;2023-08-17T13:01:52;17.10;;;14.60;;
80637;SDS011;69991;51.760;19.528;2023-08-17T13:04:48;16.50;;;14.50;;
80637;SDS011;69991;51.760;19.528;2023-08-17T13:07:44;17.00;;;14.60;;
80637;SDS011;69991;51.760;19.528;2023-08-17T13:10:40;15.20;;;13.60;;
80637;SDS011;69991;51.760;19.528;2023-08-17T13:13:36;15.30;;;13.80;;
80637;SDS011;69991;51.760;19.528;2023-08-17T13:16:32;15.80;;;14.10;;
80637;SDS011;69991;51.760;19.528;2023-08-17T13:19:28;15.20;;;13.50;;
80637;SDS011;69991;51.760;19.528;2023-08-17T13:22:24;14.90;;;13.30;;
80637;SDS011;69991;51.760;19.528;2023-08-17T13:25:20;15.30;;;13.70;;
80637;SDS011;69991;51.760;19.528;2023-08-17T13:28:16;15.60;;;13.00;;
80637;SDS011;69991;51.760;19.528;2023-08-17T13:31:12;14.10;;;12.50;;
80637;SDS011;69991;51.760;19.528;2023-08-17T13:34:08;12.50;;;11.20;;
80637;SDS011;69991;51.760;19.528;2023-08-17T13:36:43;13.10;;;11.00;;
80637;SDS011;69991;51.760;19.528;2023-08-17T13:39:32;14.60;;;13.00;;
80637;SDS011;69991;51.760;19.528;2023-08-17T13:42:07;14.10;;;12.70;;
80637;SDS011;69991;51.760;19.528;2023-08-17T13:44:57;14.10;;;11.50;;
80637;SDS011;69991;51.760;19.528;2023-08-17T13:47:32;10.60;;;9.10;;
80637;SDS011;69991;51.760;19.528;2023-08-17T13:50:21;11.40;;;10.20;;
80637;SDS011;69991;51.760;19.528;2023-08-17T13:52:56;11.50;;;10.30;;
80637;SDS011;69991;51.760;19.528;2023-08-17T13:55:45;16.10;;;14.40;;
80637;SDS011;69991;51.760;19.528;2023-08-17T13:58:20;11.00;;;9.90;;
80637;SDS011;69991;51.760;19.528;2023-08-17T14:01:09;10.30;;;9.20;;
80637;SDS011;69991;51.760;19.528;2023-08-17T14:03:46;9.60;;;8.70;;
80637;SDS011;69991;51.760;19.528;2023-08-17T14:06:42;10.30;;;9.20;;
80637;SDS011;69991;51.760;19.528;2023-08-17T14:09:17;11.60;;;10.40;;
80637;SDS011;69991;51.760;19.528;2023-08-17T14:12:06;10.80;;;9.70;;
80637;SDS011;69991;51.760;19.528;2023-08-17T14:14:42;9.60;;;8.70;;
80637;SDS011;69991;51.760;19.528;2023-08-17T14:17:31;9.30;;;8.00;;
80637;SDS011;69991;51.760;19.528;2023-08-17T14:20:06;8.10;;;7.20;;
80637;SDS011;69991;51.760;19.528;2023-08-17T14:22:56;9.20;;;8.30;;
80637;SDS011;69991;51.760;19.528;2023-08-17T14:25:31;9.70;;;8.00;;
80637;SDS011;69991;51.760;19.528;2023-08-17T14:28:27;8.50;;;7.10;;
80637;SDS011;69991;51.760;19.528;2023-08-17T14:31:26;7.40;;;6.60;;
80637;SDS011;69991;51.760;19.528;2023-08-17T14:34:01;8.50;;;6.80;;
80637;SDS011;69991;51.760;19.528;2023-08-17T14:36:51;10.50;;;7.50;;
80637;SDS011;69991;51.760;19.528;2023-08-17T14:39:26;7.60;;;6.40;;
80637;SDS011;69991;51.760;19.528;2023-08-17T14:42:05;8.10;;;7.20;;
80637;SDS011;69991;51.760;19.528;2023-08-17T14:44:47;8.10;;;6.30;;
80637;SDS011;69991;51.760;19.528;2023-08-17T14:47:29;6.70;;;6.00;;
80637;SDS011;69991;51.760;19.528;2023-08-17T14:50:25;7.40;;;5.70;;
80637;SDS011;69991;51.760;19.528;2023-08-17T14:53:21;8.30;;;5.50;;
80637;SDS011;69991;51.760;19.528;2023-08-17T14:56:20;7.80;;;6.10;;
80637;SDS011;69991;51.760;19.528;2023-08-17T14:59:16;8.30;;;6.10;;
80637;SDS011;69991;51.760;19.528;2023-08-17T15:02:12;7.90;;;6.50;;
80637;SDS011;69991;51.760;19.528;2023-08-17T15:04:56;7.90;;;7.10;;
80637;SDS011;69991;51.760;19.528;2023-08-17T15:07:38;8.30;;;6.60;;
80637;SDS011;69991;51.760;19.528;2023-08-17T15:10:20;7.50;;;5.90;;
80637;SDS011;69991;51.760;19.528;2023-08-17T15:13:02;8.30;;;7.40;;
80637;SDS011;69991;51.760;19.528;2023-08-17T15:15:45;7.70;;;6.00;;
80637;SDS011;69991;51.760;19.528;2023-08-17T15:18:27;7.90;;;7.10;;
80637;SDS011;69991;51.760;19.528;2023-08-17T15:21:09;7.90;;;6.40;;
80637;SDS011;69991;51.760;19.528;2023-08-17T15:23:51;9.20;;;6.30;;
80637;SDS011;69991;51.760;19.528;2023-08-17T15:26:41;9.50;;;6.70;;
80637;SDS011;69991;51.760;19.528;2023-08-17T15:29:37;9.20;;;7.70;;
80637;SDS011;69991;51.760;19.528;2023-08-17T15:32:12;8.20;;;6.90;;
80637;SDS011;69991;51.760;19.528;2023-08-17T15:35:01;8.70;;;7.70;;
80637;SDS011;69991;51.760;19.528;2023-08-17T15:37:36;8.10;;;6.50;;
80637;SDS011;69991;51.760;19.528;2023-08-17T15:40:25;7.50;;;6.20;;
80637;SDS011;69991;51.760;19.528;2023-08-17T15:43:00;8.60;;;7.00;;
80637;SDS011;69991;51.760;19.528;2023-08-17T15:45:50;8.20;;;7.30;;
80637;SDS011;69991;51.760;19.528;2023-08-17T15:48:33;7.80;;;6.70;;
80637;SDS011;69991;51.760;19.528;2023-08-17T15:51:15;8.70;;;6.80;;
80637;SDS011;69991;51.760;19.528;2023-08-17T15:53:57;7.50;;;6.40;;
80637;SDS011;69991;51.760;19.528;2023-08-17T15:56:39;7.50;;;6.60;;
80637;SDS011;69991;51.760;19.528;2023-08-17T15:59:21;9.40;;;7.10;;
80637;SDS011;69991;51.760;19.528;2023-08-17T16:02:03;8.00;;;6.70;;
80637;SDS011;69991;51.760;19.528;2023-08-17T16:04:45;9.20;;;7.20;;
80637;SDS011;69991;51.760;19.528;2023-08-17T16:07:27;7.80;;;7.00;;
80637;SDS011;69991;51.760;19.528;2023-08-17T16:10:09;10.00;;;8.10;;
80637;SDS011;69991;51.760;19.528;2023-08-17T16:12:51;8.40;;;7.30;;
80637;SDS011;69991;51.760;19.528;2023-08-17T16:15:33;7.60;;;6.40;;
80637;SDS011;69991;51.760;19.528;2023-08-17T16:18:15;7.50;;;6.50;;
80637;SDS011;69991;51.760;19.528;2023-08-17T16:20:50;10.50;;;7.00;;